Time;durP1;ratioP1;P1;durP2;ratioP2;P2;SDS_P1;SDS_P2;PMS_P1;PMS_P2;Temp;Humidity;BMP_temperature;BMP_pressure;BME280_temperature;BME280_humidity;BME280_pressure;Samples;Min_cycle;Max_cycle;Signal;HPM_P1;HPM_P2
2022/01/26 00:07:07;;;;;;;96.65;36.55;;;;;;;6.10;52.24;96602.84;5045810;28;20036;-68
2022/01/26 00:09:32;;;;;;;90.25;35.25;;;;;;;6.50;52.06;96589.47;5044688;28;20017;-69
2022/01/26 00:11:58;;;;;;;83.18;35.40;;;;;;;6.65;52.28;96589.66;5049112;28;20673;-68
2022/01/26 00:14:23;;;;;;;81.45;35.25;;;;;;;6.72;52.06;96586.88;5049438;28;20027;-69
2022/01/26 00:16:49;;;;;;;83.93;35.30;;;;;;;6.67;51.66;96558.50;5047542;28;20055;-69
2022/01/26 00:19:23;;;;;;;92.18;36.35;;;;;;;7.02;51.51;96591.75;5046003;28;20489;-68
2022/01/26 00:21:55;;;;;;;85.03;35.05;;;;;;;6.93;51.81;96580.00;5047603;28;20029;-68
2022/01/26 00:24:50;;;;;;;;;;;;;;;6.99;51.02;96600.97;5041954;28;20498;-67
2022/01/26 00:27:35;;;;;;;109.60;35.80;;;;;;;6.94;51.17;96597.47;5048686;28;20030;-66
2022/01/26 00:31:13;;;;;;;84.80;35.38;;;;;;;6.97;50.80;96595.16;5048913;28;20108;-66
2022/01/26 00:41:04;;;;;;;113.47;38.88;;;;;;;6.96;50.71;96590.06;5048428;28;20032;-69
2022/01/26 00:43:29;;;;;;;84.37;35.83;;;;;;;7.09;50.96;96591.56;5049010;28;20021;-69
2022/01/26 00:45:58;;;;;;;89.28;35.10;;;;;;;7.12;50.62;96594.53;5047641;28;20013;-69
2022/01/26 00:48:26;;;;;;;81.43;35.15;;;;;;;7.13;50.60;96584.75;5046723;28;20032;-68
2022/01/26 00:50:53;;;;;;;85.07;34.70;;;;;;;7.12;50.92;96573.38;5047953;28;20024;-68
2022/01/26 00:53:27;;;;;;;90.20;36.58;;;;;;;6.95;50.10;96578.69;5040604;28;20117;-68
2022/01/26 00:55:52;;;;;;;89.05;35.80;;;;;;;6.08;50.98;96587.22;5048851;28;20497;-68
2022/01/26 00:58:18;;;;;;;84.57;35.60;;;;;;;5.39;54.39;96594.44;5050530;28;20057;-69
2022/01/26 01:00:44;;;;;;;89.78;36.55;;;;;;;5.93;53.45;96600.97;5050791;28;20055;-68
2022/01/26 01:03:09;;;;;;;87.78;35.97;;;;;;;5.65;54.11;96588.59;5048621;28;20068;-68
2022/01/26 01:05:58;;;;;;;88.07;35.90;;;;;;;5.26;54.74;96579.66;5042016;28;20181;-68
2022/01/26 01:08:25;;;;;;;101.80;37.05;;;;;;;5.15;55.30;96589.22;5040009;28;20115;-68
2022/01/26 01:10:52;;;;;;;144.43;38.10;;;;;;;5.50;54.96;96590.94;5051909;28;20103;-68
2022/01/26 01:13:22;;;;;;;90.63;35.60;;;;;;;4.75;56.34;96607.63;5052181;28;20067;-68
2022/01/26 01:15:50;;;;;;;86.40;36.25;;;;;;;5.20;56.14;96599.88;5052267;28;20112;-68
2022/01/26 01:26:58;;;;;;;126.05;37.15;;;;;;;5.22;56.11;96589.91;5032433;28;20045;-68
2022/01/26 01:32:15;;;;;;;83.57;33.13;;;;;;;5.66;55.10;96573.53;4952068;29;20086;-66
2022/01/26 01:34:41;;;;;;;83.72;34.08;;;;;;;5.91;54.59;96573.19;5023794;28;20051;-66
2022/01/26 01:37:13;;;;;;;119.05;35.63;;;;;;;6.05;53.65;96573.72;5051228;28;20518;-66
2022/01/26 01:39:38;;;;;;;82.15;35.42;;;;;;;6.21;54.07;96551.78;5043311;28;20458;-68
2022/01/26 01:42:06;;;;;;;89.00;33.10;;;;;;;6.41;53.56;96567.94;5051403;28;20095;-69
2022/01/26 01:44:32;;;;;;;102.60;34.30;;;;;;;6.49;52.70;96575.44;5050143;28;20745;-68
2022/01/26 01:46:58;;;;;;;123.65;35.90;;;;;;;6.55;51.71;96584.22;5051253;28;20104;-68
2022/01/26 01:49:24;;;;;;;89.53;34.80;;;;;;;6.43;52.09;96571.13;5043499;28;20112;-68
2022/01/26 01:52:00;;;;;;;85.10;33.40;;;;;;;6.51;52.38;96583.13;5049500;28;20033;-69
2022/01/26 01:54:26;;;;;;;98.05;35.03;;;;;;;6.35;51.56;96578.69;5043156;28;20052;-68
2022/01/26 01:56:56;;;;;;;94.75;35.25;;;;;;;6.42;51.64;96564.25;5049571;28;20498;-67
2022/01/26 01:59:28;;;;;;;94.70;35.45;;;;;;;6.37;52.57;96547.50;5049842;28;20533;-67
2022/01/26 02:01:55;;;;;;;88.00;35.35;;;;;;;6.57;51.60;96554.94;5049634;28;20025;-68
2022/01/26 02:04:20;;;;;;;98.25;35.70;;;;;;;6.56;51.67;96553.34;5045190;28;20101;-68
2022/01/26 02:06:46;;;;;;;87.60;34.67;;;;;;;6.62;51.94;96547.88;5048862;28;20025;-67
2022/01/26 02:09:12;;;;;;;83.55;34.15;;;;;;;6.65;51.60;96541.28;5041965;28;20029;-67
2022/01/26 02:11:53;;;;;;;162.88;36.67;;;;;;;6.59;51.26;96564.19;5050334;28;20079;-67
2022/01/26 02:14:33;;;;;;;73.30;33.33;;;;;;;6.41;51.44;96530.13;5049938;28;20029;-69
2022/01/26 02:54:43;;;;;;;74.65;32.25;;;;;;;6.77;50.68;96548.06;5030172;28;20025;-63
2022/01/26 03:00:15;;;;;;;68.50;30.10;;;;;;;6.58;50.29;96536.16;5030545;28;20060;-62
2022/01/26 03:02:53;;;;;;;210.43;32.45;;;;;;;6.48;49.90;96525.47;5030232;28;20104;-62
2022/01/26 03:05:21;;;;;;;254.20;35.97;;;;;;;6.18;50.46;96475.63;5029776;28;20021;-62
2022/01/26 03:07:55;;;;;;;93.97;30.27;;;;;;;6.42;50.37;96515.88;5018698;28;20029;-62
2022/01/26 03:10:31;;;;;;;180.00;32.55;;;;;;;6.24;50.20;96491.31;5029754;28;20025;-62
2022/01/26 03:13:05;;;;;;;99.38;30.48;;;;;;;6.19;49.97;96479.84;5029726;28;20053;-62
2022/01/26 03:15:40;;;;;;;61.47;29.02;;;;;;;6.27;50.24;96503.22;5029850;28;20022;-63
2022/01/26 03:20:51;;;;;;;73.88;29.83;;;;;;;6.32;50.35;96494.59;5029018;28;20036;-61
2022/01/26 03:36:44;;;;;;;68.50;29.25;;;;;;;6.22;50.81;96509.25;5029223;28;20036;-61
2022/01/26 03:39:12;;;;;;;65.03;29.08;;;;;;;6.27;49.96;96495.31;5029477;28;20418;-61
2022/01/26 03:44:06;;;;;;;64.20;28.67;;;;;;;6.34;49.75;96510.97;5029654;28;20533;-61
2022/01/26 03:46:32;;;;;;;57.13;28.05;;;;;;;6.34;49.92;96518.91;5028941;28;20029;-62
2022/01/26 03:48:57;;;;;;;58.97;27.73;;;;;;;6.44;50.07;96530.41;5011124;28;20026;-61
2022/01/26 03:51:23;;;;;;;61.22;27.05;;;;;;;6.48;49.60;96536.03;5028850;28;20105;-61
2022/01/26 03:53:48;;;;;;;69.35;26.98;;;;;;;6.20;50.08;96500.78;5029196;28;20519;-61
2022/01/26 03:56:14;;;;;;;95.05;30.25;;;;;;;6.51;49.76;96546.13;5027907;28;20116;-61
2022/01/26 03:58:39;;;;;;;61.90;27.75;;;;;;;6.38;50.08;96531.41;5029124;28;20033;-61
2022/01/26 04:01:05;;;;;;;70.28;29.10;;;;;;;6.32;50.44;96521.00;5028733;28;20033;-63
2022/01/26 04:03:30;;;;;;;63.83;28.77;;;;;;;6.06;49.85;96483.66;5028717;28;20041;-61
2022/01/26 04:05:55;;;;;;;65.75;29.65;;;;;;;6.40;50.46;96544.41;5028604;28;20121;-63
2022/01/26 04:08:27;;;;;;;109.13;29.75;;;;;;;6.21;49.98;96515.56;5028755;28;20033;-63
2022/01/26 04:13:18;;;;;;;353.10;35.80;;;;;;;6.18;50.29;96502.84;5029251;28;20073;-63
2022/01/26 04:15:44;;;;;;;105.90;28.63;;;;;;;6.43;50.15;96544.69;5028956;28;20464;-63
2022/01/26 04:18:14;;;;;;;102.28;28.90;;;;;;;6.20;49.82;96521.91;5044186;28;20025;-63
2022/01/26 04:20:44;;;;;;;176.23;31.15;;;;;;;6.22;50.12;96527.75;5028230;28;20124;-62
2022/01/26 04:23:18;;;;;;;302.25;35.15;;;;;;;6.35;50.50;96552.25;5026209;28;20053;-63
2022/01/26 04:25:46;;;;;;;254.00;31.77;;;;;;;6.18;50.00;96531.09;5029006;28;20029;-62
2022/01/26 04:28:18;;;;;;;67.13;28.00;;;;;;;6.23;50.47;96537.25;5028851;28;20061;-63
2022/01/26 04:30:43;;;;;;;70.15;27.48;;;;;;;6.01;50.83;96515.28;5028828;28;20075;-62
2022/01/26 04:33:09;;;;;;;74.90;28.13;;;;;;;6.14;49.76;96527.34;5030995;28;20033;-62
2022/01/26 04:35:34;;;;;;;95.90;28.13;;;;;;;6.33;49.70;96546.38;5032482;28;20033;-62
2022/01/26 04:40:41;;;;;;;59.78;25.88;;;;;;;6.41;50.28;96541.50;5032574;28;20467;-62
2022/01/26 04:43:14;;;;;;;59.92;27.02;;;;;;;6.43;49.98;96533.31;5048333;28;20072;-63
2022/01/26 04:45:39;;;;;;;57.28;26.58;;;;;;;6.42;49.84;96532.53;5032820;28;20080;-61
2022/01/26 04:48:05;;;;;;;64.38;26.55;;;;;;;6.40;50.47;96524.03;5047604;28;20632;-61
2022/01/26 04:50:30;;;;;;;60.65;25.85;;;;;;;6.25;49.45;96495.56;5031737;28;20044;-63
2022/01/26 04:52:56;;;;;;;59.30;26.75;;;;;;;6.23;49.36;96521.41;5014215;28;20414;-63
2022/01/26 04:55:21;;;;;;;47.95;24.88;;;;;;;6.30;49.40;96529.19;5032566;28;20113;-63
2022/01/26 04:57:46;;;;;;;48.08;24.40;;;;;;;6.29;49.67;96532.84;5030837;28;20486;-62
2022/01/26 05:00:12;;;;;;;42.95;23.80;;;;;;;6.08;48.53;96510.63;5032184;28;20029;-63
2022/01/26 05:02:38;;;;;;;46.00;23.90;;;;;;;6.10;49.53;96540.25;5031071;28;20116;-62
2022/01/26 05:05:04;;;;;;;45.28;23.02;;;;;;;5.72;49.83;96480.97;5024165;28;20025;-63
2022/01/26 05:07:29;;;;;;;43.25;23.75;;;;;;;5.86;49.22;96507.06;5021899;28;20483;-61
2022/01/26 05:09:54;;;;;;;36.78;21.80;;;;;;;5.51;49.20;96494.88;5031963;28;20104;-61
2022/01/26 05:12:20;;;;;;;42.38;22.73;;;;;;;5.73;49.15;96545.97;5031925;28;20638;-61
2022/01/26 05:14:47;;;;;;;41.17;22.17;;;;;;;5.72;49.68;96559.38;5032135;28;20100;-62
2022/01/26 05:17:14;;;;;;;37.78;21.55;;;;;;;5.37;49.55;96530.53;5031577;28;20423;-61
2022/01/26 05:19:40;;;;;;;40.60;22.45;;;;;;;5.43;50.09;96564.69;5027805;28;20083;-60
2022/01/26 05:22:06;;;;;;;41.63;22.50;;;;;;;5.17;49.87;96529.13;5031428;28;20108;-61
2022/01/26 05:24:31;;;;;;;41.70;23.05;;;;;;;5.29;50.26;96552.03;5031829;28;20100;-60
2022/01/26 05:26:57;;;;;;;39.83;23.00;;;;;;;5.25;50.72;96554.31;5031591;28;20109;-63
2022/01/26 05:29:22;;;;;;;43.83;22.98;;;;;;;5.20;50.33;96552.38;5030541;28;20132;-61
2022/01/26 05:31:48;;;;;;;45.97;22.75;;;;;;;5.07;50.63;96531.56;5031368;28;20060;-61
2022/01/26 05:34:13;;;;;;;41.92;22.52;;;;;;;5.13;50.67;96551.72;5031411;28;20025;-61
2022/01/26 05:36:39;;;;;;;40.67;22.75;;;;;;;4.84;50.63;96521.88;5030920;28;20071;-62
2022/01/26 05:39:05;;;;;;;46.15;23.35;;;;;;;4.83;50.59;96535.31;5031265;28;20028;-61
2022/01/26 05:41:30;;;;;;;40.72;22.65;;;;;;;4.70;51.21;96549.53;5031288;28;20156;-61
2022/01/26 05:43:56;;;;;;;63.40;27.83;;;;;;;4.69;51.46;96558.47;5029229;28;20116;-63
2022/01/26 05:46:30;;;;;;;54.15;25.10;;;;;;;4.53;51.36;96553.91;5031055;28;20040;-61
2022/01/26 05:48:56;;;;;;;48.03;24.90;;;;;;;4.27;51.31;96536.75;5013595;28;20474;-60
2022/01/26 05:51:22;;;;;;;58.10;25.23;;;;;;;4.32;51.85;96556.09;5030223;28;20056;-61
2022/01/26 05:53:47;;;;;;;49.30;23.17;;;;;;;4.25;51.72;96565.13;5020099;28;20080;-61
2022/01/26 05:56:13;;;;;;;49.95;25.55;;;;;;;4.17;51.89;96580.25;5013583;28;20029;-61
2022/01/26 05:58:38;;;;;;;57.28;26.77;;;;;;;4.12;52.28;96571.44;5031155;28;20080;-61
2022/01/26 06:01:04;;;;;;;51.13;25.55;;;;;;;4.02;52.21;96558.81;5030826;28;20104;-61
2022/01/26 06:03:30;;;;;;;52.78;25.38;;;;;;;3.82;52.35;96532.81;5031381;28;20029;-61
2022/01/26 06:05:56;;;;;;;66.65;28.20;;;;;;;3.70;53.74;96562.78;5030649;28;20036;-61
2022/01/26 06:08:23;;;;;;;60.78;25.60;;;;;;;3.67;53.98;96556.13;5030213;28;20025;-62
2022/01/26 06:10:49;;;;;;;58.05;27.00;;;;;;;3.76;53.63;96559.25;5030672;28;20501;-62
2022/01/26 06:13:15;;;;;;;63.50;27.25;;;;;;;3.76;53.49;96551.34;5030895;28;20025;-62
2022/01/26 06:15:40;;;;;;;46.47;23.50;;;;;;;3.79;53.50;96561.44;5030841;28;20026;-63
2022/01/26 06:18:06;;;;;;;44.83;22.80;;;;;;;3.77;52.73;96545.84;5030626;28;20074;-66
2022/01/26 06:20:31;;;;;;;55.97;24.90;;;;;;;3.89;52.78;96530.91;5029818;28;20061;-60
2022/01/26 06:22:57;;;;;;;47.85;21.98;;;;;;;4.05;51.83;96550.50;5018109;28;20505;-59
2022/01/26 06:25:22;;;;;;;43.80;21.83;;;;;;;3.77;51.84;96509.00;5030391;28;20072;-61
2022/01/26 06:27:51;;;;;;;48.42;22.60;;;;;;;3.55;52.58;96550.84;5030267;28;20033;-58
2022/01/26 06:30:17;;;;;;;54.40;25.27;;;;;;;3.02;52.95;96483.22;5030325;28;20025;-62
2022/01/26 06:32:42;;;;;;;41.15;21.17;;;;;;;3.32;52.43;96498.16;5030272;28;20098;-60
2022/01/26 06:35:09;;;;;;;54.80;24.17;;;;;;;3.67;52.36;96550.88;5030205;28;20053;-60
2022/01/26 06:37:34;;;;;;;52.97;23.52;;;;;;;3.10;52.35;96467.13;5013119;28;20627;-60
2022/01/26 06:40:00;;;;;;;63.75;25.75;;;;;;;3.32;52.72;96491.06;5030496;28;20110;-61
2022/01/26 06:42:30;;;;;;;51.67;23.15;;;;;;;3.60;52.69;96531.75;5030159;28;20025;-60
2022/01/26 06:49:52;;;;;;;50.33;23.75;;;;;;;3.87;52.49;96554.00;5029795;28;20101;-60
2022/01/26 06:52:18;;;;;;;45.13;22.67;;;;;;;3.91;52.52;96568.31;5028388;28;20037;-60
2022/01/26 06:54:43;;;;;;;54.70;24.13;;;;;;;3.59;52.31;96524.91;5030164;28;20025;-60
2022/01/26 06:57:09;;;;;;;57.85;24.23;;;;;;;3.79;52.22;96546.44;5029418;28;20572;-59
2022/01/26 06:59:35;;;;;;;64.35;24.77;;;;;;;3.80;52.11;96536.72;5045325;28;20025;-60
2022/01/26 07:02:00;;;;;;;51.85;22.67;;;;;;;3.84;52.40;96543.13;5029665;28;20035;-61
2022/01/26 07:04:26;;;;;;;54.10;24.45;;;;;;;3.66;52.07;96520.31;5045089;28;20091;-63
2022/01/26 07:06:51;;;;;;;62.95;25.40;;;;;;;3.95;52.14;96568.69;5028818;28;20030;-66
2022/01/26 07:09:17;;;;;;;56.60;24.45;;;;;;;3.86;51.83;96551.59;5029310;28;20571;-66
2022/01/26 07:11:45;;;;;;;56.15;24.73;;;;;;;3.84;51.95;96548.41;5029063;28;20053;-66
2022/01/26 07:14:11;;;;;;;54.25;24.77;;;;;;;3.98;52.08;96570.84;5029586;28;20017;-63
2022/01/26 07:22:04;;;;;;;49.47;23.77;;;;;;;4.14;51.79;96585.97;5028974;28;20097;-64
2022/01/26 07:24:30;;;;;;;45.40;21.80;;;;;;;4.08;51.69;96589.50;5041410;28;20494;-61
2022/01/26 07:26:55;;;;;;;47.55;23.70;;;;;;;4.20;51.72;96572.91;5029342;28;20383;-62
2022/01/26 07:29:22;;;;;;;41.83;21.58;;;;;;;4.23;51.88;96572.47;5029655;28;20104;-64
2022/01/26 07:31:48;;;;;;;46.78;22.58;;;;;;;4.30;51.88;96571.34;5029179;28;20030;-60
2022/01/26 07:34:15;;;;;;;39.17;21.88;;;;;;;4.29;51.77;96558.38;5029540;28;20044;-64
2022/01/26 07:36:43;;;;;;;42.65;21.38;;;;;;;4.39;51.65;96574.41;5028672;28;20494;-67
2022/01/26 07:39:13;;;;;;;46.95;22.80;;;;;;;4.48;51.70;96575.69;5029252;28;20034;-65
2022/01/26 07:41:38;;;;;;;43.58;22.35;;;;;;;3.96;52.25;96546.56;5027062;28;20038;-64
2022/01/26 07:44:05;;;;;;;42.53;21.88;;;;;;;4.20;52.14;96567.66;5028036;28;20026;-65
2022/01/26 07:46:30;;;;;;;42.25;21.63;;;;;;;4.13;51.99;96568.56;5027644;28;20041;-64
2022/01/26 07:48:56;;;;;;;41.08;21.80;;;;;;;3.77;53.97;96568.75;5029084;28;20029;-62
2022/01/26 07:51:22;;;;;;;39.53;21.67;;;;;;;3.73;53.69;96571.00;5028619;28;20388;-64
2022/01/26 07:53:48;;;;;;;42.20;23.70;;;;;;;3.96;53.65;96572.91;5011464;28;20091;-64
2022/01/26 07:56:14;;;;;;;41.67;22.60;;;;;;;3.62;53.34;96543.63;5018790;28;20410;-64
2022/01/26 07:58:40;;;;;;;41.85;22.08;;;;;;;2.93;54.97;96531.84;5029147;28;20029;-63
2022/01/26 08:01:06;;;;;;;43.28;22.25;;;;;;;2.92;56.03;96561.78;5027603;28;20029;-63
2022/01/26 08:03:34;;;;;;;37.67;20.80;;;;;;;2.59;56.57;96526.16;5029401;28;20042;-69
2022/01/26 08:06:06;;;;;;;41.55;21.42;;;;;;;3.20;55.85;96557.81;5028525;28;20048;-62
2022/01/26 08:08:31;;;;;;;37.38;21.05;;;;;;;3.18;56.30;96565.91;5031349;28;20045;-62
2022/01/26 08:10:58;;;;;;;37.80;19.90;;;;;;;2.52;57.80;96556.16;5032881;28;20049;-64
2022/01/26 08:13:24;;;;;;;36.72;19.77;;;;;;;2.78;57.45;96569.00;5033265;28;20040;-61
2022/01/26 08:15:49;;;;;;;31.48;18.58;;;;;;;2.51;58.95;96573.75;5033257;28;20033;-61
2022/01/26 08:18:15;;;;;;;34.45;19.73;;;;;;;3.67;55.88;96558.75;5015012;28;20455;-61
2022/01/26 08:20:40;;;;;;;29.75;18.27;;;;;;;2.77;57.83;96549.03;5032410;28;20031;-61
2022/01/26 08:23:07;;;;;;;32.00;17.38;;;;;;;2.73;57.92;96557.56;5017783;28;20025;-61
2022/01/26 08:25:32;;;;;;;35.70;18.55;;;;;;;2.43;58.92;96542.50;5023383;28;20511;-61
2022/01/26 08:28:08;;;;;;;33.92;19.35;;;;;;;3.48;56.74;96565.09;5032725;28;20038;-61
2022/01/26 08:30:38;;;;;;;33.50;19.38;;;;;;;3.76;55.76;96546.09;5032771;28;20390;-61
2022/01/26 08:33:07;;;;;;;30.88;19.40;;;;;;;3.47;56.72;96568.75;5032729;28;20364;-61
2022/01/26 08:35:34;;;;;;;33.67;19.88;;;;;;;3.99;55.81;96558.47;5032582;28;20777;-61
2022/01/26 08:38:00;;;;;;;36.28;17.75;;;;;;;3.70;55.29;96502.25;5032077;28;20057;-61
2022/01/26 08:40:25;;;;;;;33.28;18.52;;;;;;;3.34;56.34;96511.91;5032440;28;20490;-61
2022/01/26 08:42:51;;;;;;;36.22;19.60;;;;;;;3.68;56.46;96539.31;5032112;28;20113;-61
2022/01/26 08:45:17;;;;;;;35.33;20.63;;;;;;;3.78;56.81;96557.19;5032975;28;20056;-61
2022/01/26 08:47:42;;;;;;;31.52;17.40;;;;;;;3.13;58.62;96556.06;5047968;22;20135;-64
2022/01/26 08:50:08;;;;;;;33.13;19.15;;;;;;;3.54;57.36;96554.50;5022842;28;20029;-65
2022/01/26 08:52:33;;;;;;;29.88;18.48;;;;;;;3.95;56.49;96570.50;5038724;28;20136;-65
2022/01/26 08:55:00;;;;;;;28.65;18.05;;;;;;;4.49;55.84;96550.94;5039028;28;20037;-65
2022/01/26 08:57:25;;;;;;;36.70;18.50;;;;;;;3.98;56.08;96568.19;5025187;28;20036;-64
2022/01/26 08:59:51;;;;;;;28.20;17.80;;;;;;;3.76;57.06;96546.88;5032542;28;20108;-65
2022/01/26 09:02:16;;;;;;;30.75;19.15;;;;;;;3.77;57.29;96560.84;5031063;28;20068;-64
2022/01/26 09:04:42;;;;;;;35.45;17.95;;;;;;;3.93;57.33;96565.44;5032386;28;20029;-65
2022/01/26 09:07:08;;;;;;;27.63;18.40;;;;;;;4.26;56.28;96578.09;5022876;28;20033;-66
2022/01/26 09:09:43;;;;;;;30.42;18.50;;;;;;;4.20;56.91;96568.47;5014680;28;20033;-64
2022/01/26 09:12:17;;;;;;;33.72;19.70;;;;;;;4.24;56.78;96568.81;5011010;28;20044;-66
2022/01/26 09:14:43;;;;;;;33.05;19.85;;;;;;;4.61;55.86;96586.00;5012620;28;20109;-63
2022/01/26 09:17:11;;;;;;;30.48;17.98;;;;;;;4.41;56.08;96573.16;4994731;28;20026;-65
2022/01/26 09:19:37;;;;;;;36.28;20.33;;;;;;;4.31;56.49;96582.69;5012005;28;20429;-65
2022/01/26 09:22:07;;;;;;;33.95;19.85;;;;;;;5.01;55.19;96579.97;5034601;28;20025;-63
2022/01/26 09:24:35;;;;;;;33.10;19.27;;;;;;;4.00;56.98;96589.06;5038793;28;20034;-63
2022/01/26 09:27:02;;;;;;;35.95;19.70;;;;;;;4.45;55.72;96576.13;5031491;28;20036;-63
2022/01/26 09:29:28;;;;;;;36.15;20.70;;;;;;;4.32;56.51;96564.00;5032054;28;20117;-63
2022/01/26 09:31:54;;;;;;;43.45;21.63;;;;;;;4.73;54.67;96567.53;5030511;28;20124;-63
2022/01/26 09:34:21;;;;;;;40.03;20.58;;;;;;;4.35;56.32;96558.28;5030543;28;20124;-63
2022/01/26 09:36:47;;;;;;;37.50;20.95;;;;;;;4.98;55.43;96561.19;5037705;28;20033;-66
2022/01/26 09:39:18;;;;;;;33.42;19.65;;;;;;;4.32;56.92;96565.84;5038150;28;20075;-65
2022/01/26 09:41:46;;;;;;;31.10;20.05;;;;;;;4.60;56.50;96573.84;5031344;28;20021;-66
2022/01/26 09:44:12;;;;;;;30.60;19.58;;;;;;;5.43;54.73;96564.69;5030354;28;20068;-64
2022/01/26 09:46:38;;;;;;;33.25;18.85;;;;;;;4.80;55.66;96533.13;5030193;28;20076;-64
2022/01/26 09:49:04;;;;;;;30.15;18.02;;;;;;;5.43;54.13;96545.44;5030030;28;20116;-64
2022/01/26 09:51:33;;;;;;;33.65;17.90;;;;;;;4.74;55.75;96537.50;5026775;28;20381;-66
2022/01/26 09:54:10;;;;;;;28.55;18.17;;;;;;;6.24;53.22;96554.75;5039197;28;20017;-65
2022/01/26 09:56:35;;;;;;;27.65;16.85;;;;;;;5.98;52.75;96558.00;5021372;28;20036;-64
2022/01/26 09:59:00;;;;;;;30.10;17.23;;;;;;;5.40;54.75;96557.25;5031214;28;20029;-63
2022/01/26 10:01:26;;;;;;;25.45;14.90;;;;;;;4.62;56.66;96547.25;5030844;28;20029;-63
2022/01/26 10:03:52;;;;;;;22.90;15.13;;;;;;;5.45;54.71;96561.81;5031012;28;20025;-63
2022/01/26 10:06:22;;;;;;;20.38;15.30;;;;;;;5.26;54.82;96563.84;5027488;28;20066;-64
2022/01/26 10:18:59;;;;;;;30.77;17.83;;;;;;;6.30;53.28;96546.88;5031340;28;20026;-64
2022/01/26 10:21:25;;;;;;;26.23;16.88;;;;;;;5.43;55.29;96546.22;5034762;28;20028;-65
2022/01/26 10:23:57;;;;;;;30.75;18.17;;;;;;;5.59;53.86;96526.19;5039627;28;20493;-65
2022/01/26 10:26:22;;;;;;;;;;;;;;;5.65;53.64;96561.38;5030830;28;20044;-65
2022/01/26 10:29:04;;;;;;;26.05;16.00;;;;;;;5.45;53.99;96559.97;5029632;28;19913;-65
2022/01/26 10:31:36;;;;;;;25.75;16.02;;;;;;;5.74;53.26;96542.28;5029918;28;20502;-64
2022/01/26 10:34:04;;;;;;;28.10;17.05;;;;;;;6.39;52.29;96554.13;5029404;28;20034;-65
2022/01/26 10:36:43;;;;;;;25.08;16.20;;;;;;;6.49;51.17;96548.19;5035167;28;20025;-64
2022/01/26 10:39:27;;;;;;;22.40;14.98;;;;;;;5.70;54.07;96561.47;5018719;28;20033;-65
2022/01/26 10:41:56;;;;;;;25.60;15.60;;;;;;;6.05;51.67;96537.53;5030126;28;20017;-64
2022/01/26 10:44:53;;;;;;;28.00;16.38;;;;;;;6.24;52.58;96546.81;5030551;28;20117;-65
2022/01/26 10:47:33;;;;;;;25.00;15.88;;;;;;;6.45;52.17;96542.63;5029981;28;20025;-65
2022/01/26 10:50:30;;;;;;;29.65;15.80;;;;;;;5.84;52.50;96543.50;5030338;28;20026;-65
2022/01/26 10:53:07;;;;;;;24.38;14.32;;;;;;;5.73;52.74;96529.31;5036726;28;20113;-65
2022/01/26 10:55:36;;;;;;;21.92;13.90;;;;;;;5.69;53.35;96528.19;5034617;28;20025;-65
2022/01/26 10:58:02;;;;;;;27.88;17.50;;;;;;;6.35;51.65;96517.88;5027858;28;20021;-65
2022/01/26 11:00:34;;;;;;;21.50;15.63;;;;;;;6.22;52.11;96498.69;5030233;28;20031;-65
2022/01/26 11:03:00;;;;;;;;;;;;;;;6.51;51.85;96509.91;5030352;28;20017;-65
2022/01/26 11:05:25;;;;;;;24.90;15.68;;;;;;;5.79;54.12;96499.31;5030177;28;20328;-66
2022/01/26 11:07:51;;;;;;;24.67;16.65;;;;;;;6.48;51.81;96491.91;5036796;28;20025;-65
2022/01/26 11:10:18;;;;;;;27.10;16.23;;;;;;;6.01;53.79;96503.91;5037164;28;20026;-66
2022/01/26 11:12:43;;;;;;;21.23;14.30;;;;;;;5.58;54.65;96487.63;5015279;28;20029;-65
2022/01/26 11:15:16;;;;;;;24.45;16.92;;;;;;;6.43;53.01;96473.31;5030223;28;20037;-65
2022/01/26 11:17:46;;;;;;;25.33;16.98;;;;;;;6.28;51.92;96462.56;5012178;28;20029;-64
2022/01/26 11:20:19;;;;;;;22.70;15.93;;;;;;;6.49;52.90;96482.13;5029809;28;20021;-63
2022/01/26 11:22:54;;;;;;;23.98;16.10;;;;;;;6.60;52.55;96470.63;5035785;28;20036;-64
2022/01/26 11:25:21;;;;;;;26.90;17.70;;;;;;;6.50;52.54;96473.16;5029661;28;20028;-65
2022/01/26 11:27:47;;;;;;;20.65;12.77;;;;;;;5.90;54.28;96481.81;5029261;28;20079;-66
2022/01/26 11:30:15;;;;;;;29.67;18.63;;;;;;;7.20;51.63;96475.00;5029491;28;20026;-64
2022/01/26 11:32:56;;;;;;;24.13;16.60;;;;;;;6.45;52.30;96467.81;5011823;28;20037;-64
2022/01/26 11:35:23;;;;;;;31.35;15.85;;;;;;;6.71;51.85;96464.44;5029998;28;20417;-64
2022/01/26 11:38:51;;;;;;;28.00;18.10;;;;;;;7.66;50.35;96477.28;5017741;28;20055;-65
2022/01/26 11:47:15;;;;;;;24.60;15.95;;;;;;;6.66;52.95;96482.88;5029057;28;20516;-64
2022/01/26 11:49:43;;;;;;;30.10;19.50;;;;;;;6.99;52.17;96489.06;5029433;28;20038;-63
2022/01/26 11:52:23;;;;;;;26.65;16.00;;;;;;;6.49;51.59;96490.84;5021128;28;20544;-64
2022/01/26 11:54:52;;;;;;;29.48;19.60;;;;;;;7.02;51.59;96488.59;5031606;28;20029;-63
2022/01/26 11:57:21;;;;;;;28.25;17.85;;;;;;;6.61;52.17;96498.69;5028791;28;20025;-64
2022/01/26 12:00:11;;;;;;;29.77;18.98;;;;;;;6.52;53.14;96505.44;5011293;28;20052;-64
2022/01/26 12:05:08;;;;;;;31.23;20.70;;;;;;;7.96;49.52;96482.81;5029601;28;20467;-64
2022/01/26 12:07:34;;;;;;;36.03;18.67;;;;;;;6.41;52.96;96477.28;5034118;28;20037;-64
2022/01/26 12:10:03;;;;;;;31.90;20.25;;;;;;;6.79;52.95;96494.91;5030004;28;20025;-64
2022/01/26 12:12:29;;;;;;;34.38;19.42;;;;;;;6.82;52.52;96486.50;5016154;28;20048;-64
2022/01/26 12:15:15;;;;;;;27.70;18.50;;;;;;;6.90;51.94;96487.91;5029015;28;20387;-65
2022/01/26 12:17:59;;;;;;;30.85;18.67;;;;;;;6.96;51.48;96490.38;5028758;28;20029;-64
2022/01/26 12:34:37;;;;;;;28.95;17.20;;;;;;;6.78;51.43;96503.91;5029198;28;20168;-64
2022/01/26 12:42:35;;;;;;;32.50;20.50;;;;;;;7.16;50.78;96499.56;5021795;28;20045;-66
2022/01/26 12:45:03;;;;;;;31.48;18.75;;;;;;;6.91;50.74;96497.44;5028088;28;20673;-64
2022/01/26 12:47:30;;;;;;;28.23;18.08;;;;;;;7.26;50.48;96486.44;5028757;28;20041;-63
2022/01/26 12:49:57;;;;;;;31.00;20.65;;;;;;;7.52;49.80;96480.38;5028887;28;20040;-66
2022/01/26 12:52:23;;;;;;;30.17;19.60;;;;;;;7.27;51.14;96493.34;5032006;28;20461;-66
2022/01/26 12:54:49;;;;;;;32.22;19.73;;;;;;;6.89;51.37;96473.09;5040779;28;20056;-65
2022/01/26 12:57:15;;;;;;;33.20;21.00;;;;;;;7.23;50.83;96429.53;5022642;28;20052;-64
2022/01/26 12:59:40;;;;;;;39.53;19.67;;;;;;;6.87;51.89;96443.44;5031048;28;20032;-64
2022/01/26 13:02:06;;;;;;;34.03;20.60;;;;;;;7.12;51.02;96443.72;5031046;28;20021;-64
2022/01/26 13:04:31;;;;;;;33.75;21.73;;;;;;;7.68;50.13;96436.28;5032373;28;20034;-64
2022/01/26 13:06:57;;;;;;;36.30;21.25;;;;;;;7.75;49.29;96442.13;5032197;28;20021;-64
2022/01/26 13:09:25;;;;;;;32.20;20.75;;;;;;;7.76;49.83;96462.28;5042419;28;20385;-64
2022/01/26 13:11:52;;;;;;;37.10;23.08;;;;;;;8.44;47.99;96446.56;5034010;28;20028;-65
2022/01/26 13:14:36;;;;;;;35.92;23.38;;;;;;;8.23;48.95;96453.56;5030887;28;20017;-64
2022/01/26 13:20:21;;;;;;;37.00;22.92;;;;;;;7.23;51.31;96456.00;5032580;28;20041;-65
2022/01/26 13:51:24;;;;;;;40.47;23.13;;;;;;;7.30;51.16;96476.97;5031586;28;20656;-68
2022/01/26 13:53:57;;;;;;;48.38;23.67;;;;;;;7.90;50.05;96457.34;5019200;28;20034;-67
2022/01/26 13:59:30;;;;;;;39.50;22.23;;;;;;;7.56;50.09;96451.50;5031344;28;20710;-67
2022/01/26 14:01:57;;;;;;;32.67;20.48;;;;;;;7.44;50.37;96478.16;5031219;28;20414;-67
2022/01/26 14:04:23;;;;;;;37.13;22.88;;;;;;;8.27;48.39;96461.81;5029862;28;20103;-67
2022/01/26 14:06:49;;;;;;;36.00;22.48;;;;;;;8.24;48.48;96463.16;5027856;28;20072;-70
2022/01/26 14:09:15;;;;;;;41.30;22.80;;;;;;;8.06;48.65;96445.00;5041141;28;20032;-67
2022/01/26 14:11:42;;;;;;;42.63;22.30;;;;;;;8.01;49.26;96458.22;5024725;28;20108;-67
2022/01/26 14:14:09;;;;;;;35.25;22.20;;;;;;;8.09;49.25;96460.41;5011753;28;20584;-67
2022/01/26 14:16:43;;;;;;;32.05;19.55;;;;;;;7.41;50.29;96452.19;5011398;28;20400;-67
2022/01/26 14:23:02;;;;;;;39.22;23.27;;;;;;;8.06;48.63;96451.09;5012801;28;20505;-68
2022/01/26 14:24:53;;;;;;;40.70;22.77;;;;;;;8.10;48.77;96442.66;5024967;28;20037;-67
2022/01/26 14:27:23;;;;;;;40.80;23.40;;;;;;;7.49;50.40;96453.59;5024707;28;20095;-67
2022/01/26 14:40:56;;;;;;;37.88;23.15;;;;;;;7.84;49.62;96453.06;4972079;28;20038;-68